Time;durP1;ratioP1;P1;durP2;ratioP2;P2;SDS_P1;SDS_P2;PMS_P1;PMS_P2;Temp;Humidity;BMP_temperature;BMP_pressure;BME280_temperature;BME280_humidity;BME280_pressure;Samples;Min_cycle;Max_cycle;Signal;HPM_P1;HPM_P2
2021/12/22 00:01:35;;;;;;;80.68;36.72;;;;;;;2.19;52.11;96013.13;5083283;28;20032;-63
2021/12/22 00:04:00;;;;;;;77.88;36.80;;;;;;;1.83;52.12;95971.13;5092092;28;20059;-64
2021/12/22 00:06:27;;;;;;;75.43;35.80;;;;;;;2.00;52.38;95992.25;5092422;28;20044;-64
2021/12/22 00:08:53;;;;;;;76.82;36.65;;;;;;;2.14;52.14;96019.03;5091897;28;20032;-64
2021/12/22 00:11:18;;;;;;;79.60;35.50;;;;;;;1.76;52.05;95961.78;5092423;28;20423;-64
2021/12/22 00:13:44;;;;;;;75.28;36.67;;;;;;;2.11;51.54;96026.59;5092334;28;20028;-64
2021/12/22 00:16:10;;;;;;;80.95;37.20;;;;;;;1.83;52.12;96035.91;5083170;28;20028;-64
2021/12/22 00:18:35;;;;;;;83.30;38.50;;;;;;;1.61;53.27;96013.88;5090425;28;20887;-65
2021/12/22 00:21:02;;;;;;;91.50;40.45;;;;;;;1.84;53.63;96024.41;5091711;28;20028;-65
2021/12/22 00:23:28;;;;;;;72.53;36.30;;;;;;;1.83;53.26;96001.81;5092055;28;20028;-64
2021/12/22 00:25:53;;;;;;;83.43;37.47;;;;;;;1.69;53.62;96032.72;5074082;28;20397;-65
2021/12/22 00:28:19;;;;;;;79.95;38.42;;;;;;;1.62;53.64;96016.28;5091808;28;20074;-63
2021/12/22 00:30:45;;;;;;;84.18;37.40;;;;;;;1.85;53.49;96028.63;5083617;28;20081;-63
2021/12/22 00:33:12;;;;;;;73.85;36.38;;;;;;;1.89;52.93;96027.13;5090642;28;20024;-64
2021/12/22 00:35:41;;;;;;;79.78;37.03;;;;;;;1.94;52.35;96029.09;5073621;28;20054;-63
2021/12/22 00:38:09;;;;;;;69.07;34.50;;;;;;;1.51;52.35;95973.28;5072354;28;20024;-62
2021/12/22 00:40:35;;;;;;;80.15;37.03;;;;;;;1.54;52.58;95995.66;5091527;28;20036;-62
2021/12/22 00:43:00;;;;;;;85.28;37.03;;;;;;;1.84;52.14;96029.63;5091846;28;20055;-63
2021/12/22 00:45:28;;;;;;;68.25;34.88;;;;;;;1.84;52.17;96040.13;5084304;28;20111;-63
2021/12/22 00:47:55;;;;;;;84.35;38.17;;;;;;;1.69;51.89;96027.47;5089230;28;20024;-63
2021/12/22 00:50:22;;;;;;;87.05;36.80;;;;;;;1.53;52.22;95991.41;5090856;28;20024;-63
2021/12/22 00:52:48;;;;;;;73.72;35.67;;;;;;;1.64;51.85;96009.00;5091646;28;20032;-63
2021/12/22 00:55:17;;;;;;;77.25;35.53;;;;;;;1.61;51.86;96006.03;5091481;28;20077;-62
2021/12/22 00:57:43;;;;;;;75.20;34.75;;;;;;;1.50;51.53;96011.03;5091572;28;20054;-63
2021/12/22 01:00:09;;;;;;;69.60;32.88;;;;;;;1.60;51.71;96023.59;5061700;28;20067;-62
2021/12/22 01:02:34;;;;;;;79.03;34.92;;;;;;;1.55;51.36;96034.75;5088795;28;20028;-64
2021/12/22 01:05:00;;;;;;;73.63;33.90;;;;;;;1.38;51.42;96002.31;5091342;28;20024;-63
2021/12/22 01:07:25;;;;;;;68.53;32.72;;;;;;;1.45;51.16;96016.13;5091379;28;20057;-63
2021/12/22 01:09:50;;;;;;;75.07;32.38;;;;;;;1.59;51.47;96036.91;5090515;28;20024;-63
2021/12/22 01:12:16;;;;;;;65.32;31.33;;;;;;;1.54;51.51;96029.72;5073251;28;20016;-62
2021/12/22 01:14:41;;;;;;;60.42;29.33;;;;;;;1.59;51.31;96045.59;5085046;28;20081;-63
2021/12/22 01:17:10;;;;;;;59.75;29.88;;;;;;;1.61;51.59;96042.72;5088536;28;20477;-63
2021/12/22 01:19:53;;;;;;;60.83;30.00;;;;;;;0.68;51.16;95902.59;5090212;28;20071;-63
2021/12/22 01:25:01;;;;;;;59.17;29.73;;;;;;;1.29;51.48;96022.03;5091209;28;20096;-63
2021/12/22 01:27:38;;;;;;;63.55;29.20;;;;;;;1.55;51.46;96060.97;5091207;28;20105;-63
2021/12/22 01:30:15;;;;;;;57.70;29.50;;;;;;;1.41;51.04;96041.19;5085757;28;20028;-63
2021/12/22 01:32:42;;;;;;;66.25;29.92;;;;;;;1.36;51.53;96032.41;5088482;28;20024;-62
2021/12/22 01:35:11;;;;;;;52.90;27.08;;;;;;;1.40;51.19;96034.38;5090718;28;20028;-62
2021/12/22 01:37:37;;;;;;;57.55;28.80;;;;;;;1.33;51.31;96028.41;5091041;28;20495;-63
2021/12/22 01:40:06;;;;;;;56.67;27.30;;;;;;;1.17;51.25;96019.34;5090188;28;20056;-63
2021/12/22 01:42:31;;;;;;;56.33;27.98;;;;;;;1.26;51.36;96043.44;5090522;28;20121;-63
2021/12/22 01:45:27;;;;;;;64.00;30.77;;;;;;;1.46;51.30;96072.00;5085738;28;20666;-63
2021/12/22 01:50:52;;;;;;;54.97;28.10;;;;;;;1.32;50.87;96060.09;5090316;28;20100;-63
2021/12/22 01:53:20;;;;;;;63.80;29.55;;;;;;;1.35;50.90;96062.28;5090713;28;20024;-63
2021/12/22 01:56:02;;;;;;;59.25;28.35;;;;;;;1.25;50.85;96053.13;5090640;28;20086;-63
2021/12/22 01:58:40;;;;;;;57.20;27.98;;;;;;;0.96;50.83;96015.41;5090230;28;20527;-63
2021/12/22 02:01:07;;;;;;;57.38;27.33;;;;;;;1.13;51.19;96038.38;5066050;28;20489;-63
2021/12/22 02:03:33;;;;;;;50.17;25.63;;;;;;;1.24;50.76;96055.97;5089007;28;20103;-63
2021/12/22 02:05:59;;;;;;;51.60;26.52;;;;;;;1.04;50.91;96024.78;5090315;28;20056;-63
2021/12/22 02:08:24;;;;;;;51.95;26.75;;;;;;;1.08;51.00;96033.81;5090043;28;20059;-63
2021/12/22 02:10:50;;;;;;;48.70;26.42;;;;;;;1.01;50.71;96025.22;5071632;28;20055;-64
2021/12/22 02:13:23;;;;;;;54.38;25.67;;;;;;;0.88;51.16;96013.09;5090286;28;20093;-63
2021/12/22 02:15:48;;;;;;;51.33;25.73;;;;;;;1.13;50.86;96054.09;5066804;28;20039;-63
2021/12/22 02:18:19;;;;;;;53.83;26.05;;;;;;;1.10;51.17;96044.84;5088404;28;20028;-63
2021/12/22 02:20:46;;;;;;;57.45;27.52;;;;;;;0.99;50.92;96033.31;5089712;28;20023;-63
2021/12/22 02:23:12;;;;;;;54.50;28.38;;;;;;;1.06;51.16;96035.03;5072022;28;20023;-63
2021/12/22 02:25:45;;;;;;;63.25;29.02;;;;;;;1.04;51.25;96036.06;5090007;28;20020;-63
2021/12/22 02:28:18;;;;;;;55.42;27.50;;;;;;;0.95;51.09;96026.91;5089683;28;20024;-63
2021/12/22 02:30:43;;;;;;;51.45;26.88;;;;;;;1.12;51.11;96044.63;5066198;28;20031;-63
2021/12/22 02:33:21;;;;;;;55.05;28.08;;;;;;;1.13;51.55;96038.38;5070487;28;20020;-63
2021/12/22 02:36:09;;;;;;;56.65;28.30;;;;;;;0.86;52.11;96006.47;5089844;28;20026;-63
2021/12/22 02:38:41;;;;;;;55.65;27.67;;;;;;;1.15;52.09;96042.38;5089355;28;20057;-63
2021/12/22 02:41:10;;;;;;;;;;;;;;;1.21;51.64;96062.44;5090212;28;20040;-63
2021/12/22 02:43:44;;;;;;;46.03;23.52;;;;;;;1.23;51.40;96057.00;5089870;28;19922;-63
2021/12/22 02:46:10;;;;;;;51.58;25.15;;;;;;;1.13;51.38;96036.56;5086693;28;20032;-63
2021/12/22 02:48:35;;;;;;;48.10;24.75;;;;;;;0.99;51.26;96027.28;5069910;28;20113;-63
2021/12/22 02:51:02;;;;;;;48.15;25.35;;;;;;;1.10;51.32;96049.28;5089243;28;20099;-64
2021/12/22 02:53:39;;;;;;;47.50;24.73;;;;;;;1.17;51.23;96061.28;5089879;28;20491;-63
2021/12/22 02:56:30;;;;;;;51.88;24.83;;;;;;;1.07;51.08;96047.09;5089524;28;20382;-63
2021/12/22 03:06:41;;;;;;;45.67;24.73;;;;;;;0.92;51.04;96045.69;5093553;28;20055;-64
2021/12/22 03:09:18;;;;;;;52.97;24.88;;;;;;;0.98;51.02;96044.81;5092980;28;20070;-63
2021/12/22 03:11:44;;;;;;;57.20;26.33;;;;;;;0.85;51.16;96037.09;5075121;28;20020;-63
2021/12/22 03:14:11;;;;;;;50.55;26.30;;;;;;;0.84;50.86;96039.97;5074456;28;20382;-63
2021/12/22 03:16:36;;;;;;;48.50;24.88;;;;;;;0.68;50.67;96017.78;5089323;28;20035;-63
2021/12/22 03:19:02;;;;;;;50.33;25.30;;;;;;;0.90;51.00;96050.34;5091275;28;20031;-63
2021/12/22 03:21:28;;;;;;;47.30;23.70;;;;;;;0.90;50.67;96047.72;5093337;28;20024;-63
2021/12/22 03:23:55;;;;;;;44.83;24.65;;;;;;;0.66;50.77;96025.03;5093583;28;20028;-63
2021/12/22 03:26:22;;;;;;;45.05;24.80;;;;;;;0.83;50.72;96060.09;5093252;28;20028;-64
2021/12/22 03:28:48;;;;;;;44.92;23.60;;;;;;;0.78;51.27;96062.59;5092952;28;20021;-63
2021/12/22 03:31:14;;;;;;;52.85;24.10;;;;;;;0.82;50.90;96063.75;5057692;28;20031;-63
2021/12/22 03:33:41;;;;;;;46.97;23.38;;;;;;;0.78;51.10;96052.91;5073564;28;20070;-63
2021/12/22 03:36:07;;;;;;;41.22;22.45;;;;;;;0.73;50.59;96042.28;5075022;28;20048;-63
2021/12/22 03:38:34;;;;;;;46.78;23.73;;;;;;;0.59;50.77;96024.34;5092902;28;20051;-63
2021/12/22 03:41:00;;;;;;;48.20;25.45;;;;;;;0.69;50.55;96048.97;5092426;28;20034;-63
2021/12/22 03:43:25;;;;;;;50.00;23.75;;;;;;;0.59;50.42;96045.28;5092988;28;20020;-63
2021/12/22 03:45:51;;;;;;;47.33;23.92;;;;;;;0.69;50.63;96056.03;5083836;28;20017;-63
2021/12/22 03:48:18;;;;;;;40.95;22.98;;;;;;;0.68;50.71;96054.44;5090264;28;20024;-63
2021/12/22 03:50:44;;;;;;;42.97;23.25;;;;;;;0.49;50.77;96027.47;5092194;28;20027;-64
2021/12/22 03:53:11;;;;;;;48.75;24.73;;;;;;;0.57;50.80;96035.03;5092734;28;20024;-64
2021/12/22 03:55:36;;;;;;;45.05;23.38;;;;;;;0.52;50.80;96033.06;5092531;28;20028;-63
2021/12/22 03:58:02;;;;;;;52.45;26.52;;;;;;;0.44;50.75;96022.88;5092526;28;20028;-64
2021/12/22 04:00:30;;;;;;;47.30;24.48;;;;;;;0.63;50.98;96049.06;5085499;28;20068;-63
2021/12/22 04:02:56;;;;;;;46.80;24.13;;;;;;;0.68;50.84;96063.09;5088654;28;20020;-63
2021/12/22 04:05:21;;;;;;;44.83;24.08;;;;;;;0.53;50.57;96049.56;5092457;28;20073;-63
2021/12/22 04:07:47;;;;;;;48.47;24.70;;;;;;;0.40;50.40;96032.19;5092428;28;20047;-63
2021/12/22 04:10:22;;;;;;;45.30;23.58;;;;;;;0.64;50.62;96076.84;5091767;28;20028;-63
2021/12/22 04:12:54;;;;;;;50.30;24.45;;;;;;;0.51;50.43;96057.66;5090665;28;20051;-63
2021/12/22 04:15:21;;;;;;;;;;;;;;;0.65;50.70;96067.97;5087709;28;20086;-63
2021/12/22 04:17:47;;;;;;;41.72;22.65;;;;;;;0.49;50.28;96051.03;5087167;28;19999;-63
2021/12/22 04:20:12;;;;;;;40.75;22.95;;;;;;;0.58;50.33;96062.00;5073224;28;20123;-63
2021/12/22 04:22:38;;;;;;;43.58;23.35;;;;;;;0.54;50.76;96061.63;5092133;28;20035;-63
2021/12/22 04:25:06;;;;;;;46.40;23.83;;;;;;;0.54;50.48;96061.63;5092081;28;20467;-63
2021/12/22 04:27:32;;;;;;;46.03;24.73;;;;;;;0.49;50.15;96062.28;5092049;28;20094;-63
2021/12/22 04:29:57;;;;;;;48.90;24.75;;;;;;;0.49;50.50;96074.56;5089914;28;20402;-63
2021/12/22 04:32:23;;;;;;;44.30;23.42;;;;;;;0.40;50.59;96063.59;5086278;28;20491;-63
2021/12/22 04:34:48;;;;;;;49.50;24.23;;;;;;;0.39;50.21;96069.84;5090329;28;20036;-62
2021/12/22 04:37:14;;;;;;;50.08;24.13;;;;;;;0.21;50.36;96041.06;5073658;28;20115;-63
2021/12/22 04:39:39;;;;;;;43.53;24.10;;;;;;;0.31;50.25;96070.13;5091094;28;20512;-63
2021/12/22 04:42:05;;;;;;;47.10;23.40;;;;;;;0.41;50.46;96083.53;5091774;28;20115;-63
2021/12/22 04:44:30;;;;;;;48.70;24.98;;;;;;;0.47;50.78;96080.03;5091797;28;20030;-63
2021/12/22 04:46:56;;;;;;;40.95;23.70;;;;;;;0.24;51.05;96045.84;5061701;28;20115;-63
2021/12/22 04:49:21;;;;;;;46.83;25.02;;;;;;;0.44;51.63;96062.13;5089781;28;20105;-63
2021/12/22 04:51:52;;;;;;;50.20;27.30;;;;;;;0.67;52.14;96081.66;5091494;28;20389;-63
2021/12/22 04:56:53;;;;;;;55.72;27.08;;;;;;;0.61;51.64;96056.31;5091991;28;20036;-63
2021/12/22 04:59:19;;;;;;;50.78;25.67;;;;;;;0.69;51.57;96066.50;5072757;28;20162;-63
2021/12/22 05:01:44;;;;;;;56.55;27.08;;;;;;;0.77;51.55;96081.94;5081144;28;20032;-64
2021/12/22 05:04:10;;;;;;;50.22;26.10;;;;;;;0.82;51.44;96089.94;5090110;28;20043;-63
2021/12/22 05:06:36;;;;;;;53.10;26.45;;;;;;;0.84;51.51;96085.28;5091532;28;20043;-63
2021/12/22 05:09:02;;;;;;;52.03;26.10;;;;;;;0.58;51.84;96035.84;5090664;28;20642;-63
2021/12/22 05:11:28;;;;;;;49.70;25.30;;;;;;;0.72;51.97;96073.94;5072993;28;20043;-64
2021/12/22 05:13:53;;;;;;;53.97;26.95;;;;;;;0.68;51.79;96059.69;5072949;28;20024;-63
2021/12/22 05:16:19;;;;;;;51.33;26.20;;;;;;;0.83;51.44;96060.09;5085564;28;20431;-63
2021/12/22 05:21:14;;;;;;;58.30;27.60;;;;;;;0.78;51.59;96049.50;5090435;28;20032;-63
2021/12/22 05:23:39;;;;;;;54.45;26.77;;;;;;;0.84;51.30;96061.69;5072380;28;20024;-63
2021/12/22 05:26:05;;;;;;;46.67;25.83;;;;;;;0.88;51.04;96064.69;5072610;28;20111;-63
2021/12/22 05:28:30;;;;;;;50.03;25.92;;;;;;;1.00;51.05;96082.06;5072320;28;20061;-63
2021/12/22 05:30:55;;;;;;;53.00;25.58;;;;;;;0.83;51.29;96054.88;5086708;28;20064;-63
2021/12/22 05:33:21;;;;;;;55.83;26.40;;;;;;;0.75;51.36;96036.81;5089580;28;20042;-64
2021/12/22 05:35:46;;;;;;;53.05;25.88;;;;;;;0.96;51.44;96059.13;5072308;28;20058;-65
2021/12/22 05:38:13;;;;;;;48.38;25.70;;;;;;;0.97;51.51;96048.47;5090539;28;20028;-63
2021/12/22 05:40:38;;;;;;;50.97;27.27;;;;;;;1.27;51.73;96077.28;5072034;28;20039;-63
2021/12/22 05:43:03;;;;;;;52.10;28.23;;;;;;;1.52;51.42;96079.75;5090831;28;20028;-65
2021/12/22 05:45:29;;;;;;;52.15;27.98;;;;;;;1.51;50.90;96041.47;5087677;28;20074;-63
2021/12/22 05:47:54;;;;;;;55.83;29.65;;;;;;;1.85;51.32;96056.69;5068345;28;20115;-63
2021/12/22 05:50:21;;;;;;;57.70;29.60;;;;;;;2.13;50.73;96069.16;5089658;28;20081;-63
2021/12/22 05:52:47;;;;;;;54.22;28.95;;;;;;;2.31;50.70;96075.09;5102251;23;20032;-60
2021/12/22 05:55:13;;;;;;;49.47;28.77;;;;;;;1.90;49.87;96010.41;5032693;28;20038;-60
2021/12/22 05:57:38;;;;;;;49.28;29.73;;;;;;;2.32;50.22;96049.63;5029940;28;20025;-60
2021/12/22 06:00:06;;;;;;;51.83;30.23;;;;;;;2.23;49.23;96020.31;5029481;28;20044;-59
2021/12/22 06:02:31;;;;;;;49.38;28.70;;;;;;;2.37;49.65;96001.69;5028061;28;20030;-59
2021/12/22 06:04:56;;;;;;;48.58;29.85;;;;;;;2.59;49.50;95997.41;5028614;28;20120;-59
2021/12/22 06:07:22;;;;;;;53.15;29.83;;;;;;;2.76;49.08;95998.28;5012343;28;20040;-59
2021/12/22 06:09:47;;;;;;;50.08;28.52;;;;;;;2.64;48.82;95965.22;5011435;28;20040;-59
2021/12/22 06:12:13;;;;;;;49.70;28.70;;;;;;;3.11;48.51;96071.75;5030076;28;20029;-59
2021/12/22 06:14:38;;;;;;;47.58;27.77;;;;;;;2.92;47.91;96027.47;5012124;28;20814;-59
2021/12/22 06:17:04;;;;;;;56.75;31.45;;;;;;;3.26;48.16;96041.53;5027896;28;20037;-59
2021/12/22 06:19:29;;;;;;;49.90;29.05;;;;;;;2.96;47.78;95968.97;5028634;28;20029;-59
2021/12/22 06:21:55;;;;;;;47.88;28.23;;;;;;;3.75;47.52;96071.59;5029526;28;20037;-59
2021/12/22 06:24:20;;;;;;;43.58;27.15;;;;;;;3.17;47.07;95975.38;5029614;28;20100;-60
2021/12/22 06:26:46;;;;;;;46.35;28.00;;;;;;;3.93;47.35;96073.19;5029575;28;20108;-59
2021/12/22 06:29:11;;;;;;;43.97;26.90;;;;;;;3.70;47.03;96034.69;5028846;28;20022;-62
2021/12/22 06:31:36;;;;;;;46.80;27.55;;;;;;;3.99;47.30;96081.97;5028789;28;20471;-59
2021/12/22 06:34:03;;;;;;;47.38;27.77;;;;;;;3.47;46.87;96069.00;5027851;28;20021;-60
2021/12/22 06:36:28;;;;;;;44.30;27.83;;;;;;;3.07;47.91;96012.81;5028977;28;20030;-59
2021/12/22 06:38:54;;;;;;;48.35;29.23;;;;;;;3.76;47.30;96067.13;5028925;28;20100;-61
2021/12/22 06:41:20;;;;;;;45.08;28.02;;;;;;;3.64;47.34;96023.28;5029075;28;20216;-62
2021/12/22 06:43:45;;;;;;;42.13;26.83;;;;;;;3.93;47.29;96086.34;5029112;28;20029;-61
2021/12/22 06:46:11;;;;;;;45.70;27.33;;;;;;;4.09;46.76;96082.94;5028824;28;20090;-59
2021/12/22 06:48:36;;;;;;;39.92;26.73;;;;;;;3.43;46.48;95966.13;5026672;28;20116;-60
2021/12/22 06:51:02;;;;;;;44.15;27.58;;;;;;;2.16;46.40;95782.63;5020417;28;20029;-59
2021/12/22 06:53:27;;;;;;;41.08;26.80;;;;;;;3.31;45.85;95944.34;5029100;28;20041;-59
2021/12/22 06:55:53;;;;;;;40.83;26.20;;;;;;;2.80;46.00;95844.41;5028804;28;20064;-63
2021/12/22 06:58:18;;;;;;;38.20;26.05;;;;;;;2.20;46.19;95775.84;5011228;28;20036;-59
2021/12/22 07:00:45;;;;;;;45.50;26.45;;;;;;;2.17;45.34;95774.50;5028272;28;20460;-59
2021/12/22 07:03:11;;;;;;;40.17;26.08;;;;;;;3.85;45.50;96015.72;5027603;28;20089;-59
2021/12/22 07:05:36;;;;;;;36.92;25.30;;;;;;;3.82;45.88;96024.88;5027795;28;20471;-58
2021/12/22 07:08:02;;;;;;;37.78;24.90;;;;;;;3.20;46.07;95924.16;5011227;28;20028;-59
2021/12/22 07:10:28;;;;;;;42.17;26.15;;;;;;;4.34;45.74;96073.84;5028447;28;20659;-60
2021/12/22 07:12:53;;;;;;;43.28;27.55;;;;;;;4.15;45.46;96099.63;5028727;28;20021;-58
2021/12/22 07:15:19;;;;;;;42.72;28.35;;;;;;;4.30;45.71;96076.16;5028918;28;20067;-59
2021/12/22 07:17:47;;;;;;;43.42;27.05;;;;;;;3.66;45.81;95941.47;5027261;28;20034;-60
2021/12/22 07:20:14;;;;;;;40.42;26.75;;;;;;;4.63;45.76;96082.41;5027830;28;20485;-64
2021/12/22 07:22:40;;;;;;;43.53;27.27;;;;;;;4.48;45.44;96042.69;5028978;28;20167;-60
2021/12/22 07:25:07;;;;;;;43.60;26.98;;;;;;;3.86;45.15;95941.78;5028890;28;20022;-60
2021/12/22 07:27:33;;;;;;;40.05;27.38;;;;;;;4.53;45.07;96029.59;5028975;28;20036;-61
2021/12/22 07:29:59;;;;;;;46.00;29.50;;;;;;;4.93;45.30;96087.28;5028031;28;20101;-60
2021/12/22 07:32:24;;;;;;;47.10;27.83;;;;;;;4.40;44.74;95978.03;5028023;28;20498;-59
2021/12/22 07:35:05;;;;;;;42.47;26.73;;;;;;;4.93;44.67;96060.94;5027320;28;20722;-58
2021/12/22 07:37:47;;;;;;;41.65;28.52;;;;;;;5.18;44.61;96079.69;5029044;28;20026;-61
2021/12/22 07:40:19;;;;;;;43.33;26.88;;;;;;;4.31;46.01;95982.94;5028091;28;20387;-62
2021/12/22 07:42:45;;;;;;;35.75;25.17;;;;;;;4.70;44.83;96030.31;5028783;28;20454;-64
2021/12/22 07:45:11;;;;;;;35.70;24.88;;;;;;;5.21;44.90;96081.81;5028870;28;20072;-61
2021/12/22 07:47:38;;;;;;;39.17;26.70;;;;;;;5.33;44.35;96078.28;5029935;28;20045;-60
2021/12/22 07:50:06;;;;;;;43.33;26.55;;;;;;;5.18;44.35;96040.13;5024566;28;20037;-60
2021/12/22 07:52:31;;;;;;;41.45;25.75;;;;;;;5.29;43.84;96070.06;5032170;28;20030;-59
2021/12/22 07:54:58;;;;;;;36.97;25.13;;;;;;;5.31;43.98;96080.34;5032200;28;20036;-60
2021/12/22 07:57:23;;;;;;;36.13;24.80;;;;;;;5.12;44.15;96048.25;5032211;28;20029;-60
2021/12/22 07:59:49;;;;;;;32.28;24.35;;;;;;;5.14;43.54;96043.50;5031489;28;20029;-61
2021/12/22 08:02:14;;;;;;;34.47;25.15;;;;;;;5.33;43.88;96065.88;5031405;28;20033;-64
2021/12/22 08:04:40;;;;;;;36.50;24.67;;;;;;;5.12;43.56;96022.66;5030787;28;20030;-69
2021/12/22 08:07:06;;;;;;;33.25;24.30;;;;;;;5.21;43.79;96055.44;5032269;28;20028;-63
2021/12/22 08:09:31;;;;;;;34.53;24.70;;;;;;;5.15;43.27;96047.72;5031447;28;20025;-64
2021/12/22 08:12:04;;;;;;;34.22;24.65;;;;;;;5.60;43.08;96089.63;5032142;28;20530;-67
2021/12/22 08:14:38;;;;;;;29.20;22.88;;;;;;;5.18;42.91;96036.69;5032186;28;20032;-63
2021/12/22 08:17:04;;;;;;;35.58;24.15;;;;;;;5.09;42.90;96065.34;5031491;28;20036;-62
2021/12/22 08:19:30;;;;;;;34.10;24.05;;;;;;;4.77;43.39;96070.50;5029906;28;20037;-62
2021/12/22 08:21:56;;;;;;;34.30;24.98;;;;;;;4.72;44.00;96001.91;5031687;28;20029;-61
2021/12/22 08:24:23;;;;;;;38.30;24.30;;;;;;;5.35;43.57;96105.19;5013699;28;20501;-62
2021/12/22 08:26:50;;;;;;;41.17;25.40;;;;;;;4.85;43.63;96043.69;5031713;28;20026;-60
2021/12/22 08:29:16;;;;;;;30.77;22.92;;;;;;;4.65;43.39;96036.31;5030952;28;20028;-62
2021/12/22 08:31:42;;;;;;;36.63;24.20;;;;;;;4.77;43.25;96020.41;5031037;28;20033;-61
2021/12/22 08:34:10;;;;;;;35.95;23.52;;;;;;;4.98;43.33;96021.44;5030031;28;20021;-61
2021/12/22 08:39:20;;;;;;;34.67;23.23;;;;;;;5.72;42.28;96092.91;5030775;28;20040;-62
2021/12/22 08:41:48;;;;;;;33.10;23.63;;;;;;;3.94;42.09;95821.31;5031483;28;20041;-62
2021/12/22 08:44:17;;;;;;;32.90;24.20;;;;;;;5.01;42.54;95947.09;5031368;28;20025;-62
2021/12/22 08:46:48;;;;;;;31.10;23.75;;;;;;;6.19;42.40;96089.69;5030858;28;20056;-63
2021/12/22 08:49:13;;;;;;;28.90;22.67;;;;;;;6.43;42.28;96089.31;5029226;28;20022;-62
2021/12/22 08:51:39;;;;;;;33.83;24.13;;;;;;;6.21;41.41;96063.78;5030585;28;20032;-62
2021/12/22 08:54:04;;;;;;;32.63;23.55;;;;;;;6.00;41.31;96040.94;5031063;28;20033;-63
2021/12/22 08:56:30;;;;;;;34.13;23.95;;;;;;;6.06;41.23;96044.41;5031272;28;20030;-62
2021/12/22 08:58:56;;;;;;;33.03;24.35;;;;;;;6.32;41.57;96077.09;5029732;28;20049;-63
2021/12/22 09:01:22;;;;;;;33.45;24.35;;;;;;;6.30;40.98;96071.25;5030416;28;20114;-62
2021/12/22 09:03:48;;;;;;;32.05;24.25;;;;;;;6.31;41.62;96055.16;5029581;28;20026;-63
2021/12/22 09:06:14;;;;;;;36.00;25.70;;;;;;;6.63;41.54;96093.94;5030701;28;20104;-62
2021/12/22 09:08:40;;;;;;;31.42;24.10;;;;;;;6.47;41.11;96048.91;5013112;28;20479;-63
2021/12/22 09:11:06;;;;;;;31.55;22.98;;;;;;;6.69;40.58;96106.13;5030704;28;20018;-64
2021/12/22 09:13:31;;;;;;;28.35;22.02;;;;;;;6.47;40.85;96100.97;5013329;28;20021;-63
2021/12/22 09:15:57;;;;;;;30.92;23.27;;;;;;;6.38;41.11;96118.34;5030699;28;20030;-63
2021/12/22 09:18:22;;;;;;;28.67;21.95;;;;;;;6.38;41.49;96108.56;5028786;28;20564;-64
2021/12/22 09:20:48;;;;;;;34.33;22.33;;;;;;;6.09;41.29;96065.81;5031171;28;20060;-64
2021/12/22 09:23:14;;;;;;;32.60;22.75;;;;;;;6.13;40.87;96061.59;5012676;28;20056;-63
2021/12/22 09:25:40;;;;;;;33.88;22.48;;;;;;;6.46;40.54;96125.81;5030888;28;20216;-63
2021/12/22 09:28:06;;;;;;;30.63;22.23;;;;;;;6.05;40.82;96077.94;5012706;28;20104;-64
2021/12/22 09:30:35;;;;;;;32.72;24.30;;;;;;;6.05;40.72;96096.44;5030316;28;20021;-63
2021/12/22 09:33:04;;;;;;;29.83;22.55;;;;;;;5.77;41.48;96102.72;5030860;28;20032;-65
2021/12/22 09:35:30;;;;;;;31.73;22.65;;;;;;;3.97;41.45;95828.72;5029203;28;20180;-64
2021/12/22 09:37:55;;;;;;;29.38;21.98;;;;;;;4.64;41.48;95902.97;5030312;28;20523;-64
2021/12/22 09:40:21;;;;;;;27.70;22.05;;;;;;;4.55;41.31;95864.94;5029600;28;20463;-63
2021/12/22 09:42:46;;;;;;;31.80;22.63;;;;;;;6.08;41.30;96095.13;5012682;28;20422;-65
2021/12/22 09:45:11;;;;;;;30.83;21.98;;;;;;;5.98;40.87;96029.78;5030270;28;20490;-64
2021/12/22 09:47:52;;;;;;;28.75;22.77;;;;;;;6.41;40.83;96067.63;5030537;28;20022;-63
2021/12/22 09:50:34;;;;;;;32.88;22.45;;;;;;;6.47;40.74;96074.53;5024075;28;20022;-64
2021/12/22 09:53:00;;;;;;;31.40;22.23;;;;;;;6.86;40.36;96098.84;5029817;28;20030;-64
2021/12/22 09:55:26;;;;;;;31.65;22.10;;;;;;;5.39;40.56;95864.38;5030125;28;20026;-63
2021/12/22 09:57:51;;;;;;;29.92;22.83;;;;;;;6.28;40.25;96000.16;5030096;28;20498;-62
2021/12/22 10:00:16;;;;;;;28.90;21.00;;;;;;;6.69;39.71;96034.75;5029110;28;20026;-63
2021/12/22 10:02:42;;;;;;;28.73;21.80;;;;;;;7.34;39.66;96149.06;5027952;28;20098;-62
2021/12/22 10:05:08;;;;;;;29.30;21.67;;;;;;;6.11;39.86;95880.66;5029730;28;20036;-63
2021/12/22 10:07:37;;;;;;;28.83;20.38;;;;;;;5.78;39.66;95827.13;5029856;28;20100;-64
2021/12/22 10:10:09;;;;;;;29.42;20.73;;;;;;;7.76;39.55;96125.09;5029409;28;20045;-65
2021/12/22 10:12:35;;;;;;;30.15;21.77;;;;;;;7.07;39.12;95995.78;5029919;28;20092;-64
2021/12/22 10:15:04;;;;;;;30.15;21.48;;;;;;;7.33;39.25;96044.25;5029890;28;20072;-66
2021/12/22 10:17:32;;;;;;;25.48;20.70;;;;;;;7.75;38.95;96058.09;5029184;28;20037;-64
2021/12/22 10:19:59;;;;;;;34.80;22.60;;;;;;;8.11;38.96;96084.63;5028155;28;20061;-62
2021/12/22 10:22:33;;;;;;;24.15;20.23;;;;;;;7.88;38.21;96018.91;5029544;28;20068;-63
2021/12/22 10:25:10;;;;;;;28.75;20.63;;;;;;;8.23;37.83;96074.53;5029714;28;20108;-61
2021/12/22 10:27:37;;;;;;;26.60;20.90;;;;;;;8.36;37.93;96073.25;5029449;28;20052;-63
2021/12/22 10:30:24;;;;;;;29.05;20.42;;;;;;;8.41;37.58;96069.81;5029032;28;20110;-64
2021/12/22 10:33:02;;;;;;;24.83;18.77;;;;;;;7.77;37.26;95976.53;5008625;28;20112;-62
2021/12/22 10:35:34;;;;;;;24.88;19.02;;;;;;;7.78;36.96;96084.06;5024288;28;20026;-63
2021/12/22 10:38:02;;;;;;;25.48;19.98;;;;;;;7.07;38.44;96003.72;5029017;28;20052;-63
2021/12/22 10:40:33;;;;;;;27.00;20.35;;;;;;;7.21;38.18;96053.19;5028809;28;20083;-61
2021/12/22 10:42:59;;;;;;;29.60;20.30;;;;;;;7.19;39.20;96050.03;5029632;28;20443;-67
2021/12/22 10:45:28;;;;;;;26.00;20.63;;;;;;;6.97;38.81;96046.78;5029270;28;20060;-63
2021/12/22 10:50:56;;;;;;;23.00;19.77;;;;;;;6.85;39.34;96041.69;5003636;28;20041;-66
2021/12/22 10:53:22;;;;;;;30.13;20.15;;;;;;;6.31;39.34;96020.00;5029110;28;20029;-62
2021/12/22 10:55:53;;;;;;;27.33;21.42;;;;;;;5.92;40.55;95973.50;5029105;28;20025;-61
2021/12/22 10:58:22;;;;;;;27.95;20.88;;;;;;;6.07;41.29;96032.78;5011157;28;20461;-62
2021/12/22 11:01:09;;;;;;;33.72;22.33;;;;;;;5.98;41.10;96033.22;5028589;28;20021;-61
2021/12/22 11:03:42;;;;;;;30.33;20.55;;;;;;;5.32;41.70;95945.56;5029333;28;20037;-63
2021/12/22 11:06:27;;;;;;;31.80;20.92;;;;;;;4.06;41.83;95771.97;5022200;28;20075;-66
2021/12/22 11:09:09;;;;;;;29.80;20.95;;;;;;;5.57;41.61;96008.31;5028552;28;20032;-64
2021/12/22 11:11:46;;;;;;;31.45;21.85;;;;;;;4.81;42.02;95916.09;5028939;28;20022;-63
2021/12/22 11:14:22;;;;;;;29.58;20.25;;;;;;;5.30;42.17;95966.13;5011163;28;20467;-63
2021/12/22 11:17:09;;;;;;;30.35;21.38;;;;;;;4.12;42.48;95773.63;5028523;28;20028;-64
2021/12/22 11:19:57;;;;;;;30.08;21.17;;;;;;;5.38;42.72;96020.28;5026843;28;20022;-63
2021/12/22 11:22:37;;;;;;;32.03;21.33;;;;;;;4.95;42.25;95927.00;5008548;28;20506;-61
2021/12/22 11:25:05;;;;;;;30.63;20.67;;;;;;;5.40;42.74;95978.63;5033068;28;20105;-65
2021/12/22 11:27:31;;;;;;;34.42;21.63;;;;;;;5.28;42.81;95975.34;5032872;28;20053;-64
2021/12/22 11:29:58;;;;;;;36.03;21.85;;;;;;;5.20;43.19;95969.47;5032021;28;20499;-64
2021/12/22 11:32:28;;;;;;;33.38;22.48;;;;;;;4.60;42.75;95882.63;5032339;28;20030;-64
2021/12/22 11:34:57;;;;;;;35.33;23.15;;;;;;;3.90;43.77;95813.13;5031295;28;20021;-64
2021/12/22 11:37:23;;;;;;;38.10;22.17;;;;;;;2.87;43.91;95665.59;5032254;28;20049;-64
2021/12/22 11:39:50;;;;;;;35.20;21.75;;;;;;;2.83;43.35;95640.84;5014229;28;20128;-63
2021/12/22 11:42:16;;;;;;;34.03;21.02;;;;;;;4.98;43.75;95944.97;5032512;28;20763;-64
2021/12/22 11:44:48;;;;;;;34.67;22.48;;;;;;;4.60;43.56;95893.97;5032944;28;20028;-64
2021/12/22 11:47:18;;;;;;;29.48;20.92;;;;;;;5.37;43.34;95987.00;5032446;28;20029;-64
2021/12/22 11:49:53;;;;;;;34.35;20.58;;;;;;;4.82;43.33;95907.13;5032817;28;20037;-64
2021/12/22 11:52:36;;;;;;;32.35;20.98;;;;;;;5.46;42.90;95974.97;5032564;28;20549;-64
2021/12/22 11:55:24;;;;;;;35.42;23.08;;;;;;;5.56;42.79;95975.06;5014997;28;20390;-64